createdAt,value
2019-02-15T00:00:38.875Z,102339.50
2019-02-15T00:02:13.699Z,102323.22
2019-02-15T00:03:48.172Z,102331.41
2019-02-15T00:05:22.795Z,102330.08
2019-02-15T00:06:57.503Z,102326.81
2019-02-15T00:08:32.138Z,102323.84
2019-02-15T00:10:06.853Z,102327.98
2019-02-15T00:11:41.221Z,102325.53
2019-02-15T00:13:15.889Z,102324.78
2019-02-15T00:14:50.706Z,102321.75
2019-02-15T00:16:25.474Z,102330.43
2019-02-15T00:18:19.209Z,102322.81
2019-02-15T00:19:54.579Z,102322.27
2019-02-15T00:21:31.721Z,102325.21
2019-02-15T00:23:06.353Z,102322.23
2019-02-15T00:24:40.723Z,102324.78
2019-02-15T00:26:16.583Z,102326.19
2019-02-15T00:27:51.456Z,102326.58
2019-02-15T00:29:26.157Z,102321.39
2019-02-15T00:31:01.183Z,102324.37
2019-02-15T00:32:35.635Z,102329.29
2019-02-15T00:34:10.035Z,102326.69
2019-02-15T00:35:44.910Z,102324.56
2019-02-15T00:37:19.295Z,102324.02
2019-02-15T00:38:53.674Z,102329.20
2019-02-15T00:40:28.131Z,102329.31
2019-02-15T00:42:02.603Z,102334.20
2019-02-15T00:43:37.134Z,102329.13
2019-02-15T00:45:13.187Z,102331.25
2019-02-15T00:46:57.531Z,102334.52
2019-02-15T00:48:31.899Z,102323.95
2019-02-15T00:50:14.990Z,102327.65
2019-02-15T00:51:54.972Z,102332.96
2019-02-15T00:53:51.439Z,102322.85
2019-02-15T00:55:31.826Z,102325.30
2019-02-15T00:57:15.063Z,102326.22
2019-02-15T00:59:08.528Z,102324.45
2019-02-15T01:00:53.821Z,102330.30
2019-02-15T01:02:47.529Z,102331.96
2019-02-15T01:04:59.404Z,102333.38
2019-02-15T01:06:40.354Z,102327.92
2019-02-15T01:08:27.257Z,102327.09
2019-02-15T01:10:13.439Z,102330.91
2019-02-15T01:11:52.613Z,102331.75
2019-02-15T01:13:31.227Z,102331.79
2019-02-15T01:15:03.195Z,102331.66
2019-02-15T01:16:37.932Z,102335.73
2019-02-15T01:18:12.304Z,102327.65
2019-02-15T01:19:46.930Z,102328.54
2019-02-15T01:21:21.358Z,102329.65
2019-02-15T01:22:55.829Z,102335.56
2019-02-15T01:24:30.632Z,102329.81
2019-02-15T01:26:30.314Z,102324.46
2019-02-15T01:28:13.015Z,102331.10
2019-02-15T01:30:06.483Z,102324.23
2019-02-15T01:31:58.995Z,102327.52
2019-02-15T01:33:42.834Z,102327.67
2019-02-15T01:35:35.197Z,102334.30
2019-02-15T01:37:18.014Z,102331.48
2019-02-15T01:39:14.884Z,102323.80
2019-02-15T01:41:08.958Z,102320.66
2019-02-15T01:42:59.791Z,102322.91
2019-02-15T01:44:43.439Z,102321.27
2019-02-15T01:46:38.346Z,102319.20
2019-02-15T01:48:12.726Z,102318.70
2019-02-15T01:49:47.704Z,102321.95
2019-02-15T01:51:22.346Z,102317.31
2019-02-15T01:52:56.795Z,102323.34
2019-02-15T01:54:31.503Z,102325.19
2019-02-15T01:56:05.885Z,102324.28
2019-02-15T01:57:40.585Z,102328.19
2019-02-15T01:59:14.967Z,102319.98
2019-02-15T02:00:49.671Z,102329.16
2019-02-15T02:02:26.134Z,102324.30
2019-02-15T02:04:00.610Z,102323.98
2019-02-15T02:05:35.047Z,102326.22
2019-02-15T02:07:09.958Z,102317.39
2019-02-15T02:08:44.958Z,102321.04
2019-02-15T02:10:19.427Z,102318.41
2019-02-15T02:11:54.300Z,102313.84
2019-02-15T02:13:28.671Z,102307.61
2019-02-15T02:15:04.468Z,102305.95
2019-02-15T02:16:39.791Z,102306.63
2019-02-15T02:18:14.511Z,102305.38
2019-02-15T02:19:48.909Z,102301.60
2019-02-15T02:21:23.283Z,102304.95
2019-02-15T02:22:57.955Z,102296.34
2019-02-15T02:24:32.591Z,102299.95
2019-02-15T02:26:06.998Z,102301.66
2019-02-15T02:27:41.362Z,102297.98
2019-02-15T02:29:15.941Z,102297.66
2019-02-15T02:30:50.312Z,102299.41
2019-02-15T02:32:25.267Z,102298.36
2019-02-15T02:33:59.706Z,102296.09
2019-02-15T02:35:34.375Z,102295.67
2019-02-15T02:37:09.146Z,102293.80
2019-02-15T02:38:43.559Z,102294.87
2019-02-15T02:40:17.932Z,102291.78
2019-02-15T02:41:52.574Z,102296.78
2019-02-15T02:43:26.955Z,102295.22
2019-02-15T02:45:01.396Z,102293.36
2019-02-15T02:46:35.872Z,102295.44
2019-02-15T02:48:10.509Z,102296.13
2019-02-15T02:49:45.480Z,102294.14
2019-02-15T02:51:19.895Z,102292.48
2019-02-15T02:52:54.360Z,102290.87
2019-02-15T02:54:29.019Z,102287.86
2019-02-15T02:56:03.441Z,102289.68
2019-02-15T02:57:38.178Z,102294.45
2019-02-15T02:59:12.815Z,102291.13
2019-02-15T03:00:47.276Z,102285.27
2019-02-15T03:02:22.004Z,102284.25
2019-02-15T03:03:56.734Z,102292.20
2019-02-15T03:05:31.364Z,102284.81
2019-02-15T03:07:05.816Z,102279.97
2019-02-15T03:08:40.201Z,102272.86
2019-02-15T03:10:14.595Z,102282.22
2019-02-15T03:11:49.035Z,102277.26
2019-02-15T03:13:23.426Z,102280.69
2019-02-15T03:14:58.258Z,102286.19
2019-02-15T03:16:32.759Z,102278.85
2019-02-15T03:18:07.390Z,102280.41
2019-02-15T03:19:41.759Z,102289.80
2019-02-15T03:21:19.213Z,102291.05
2019-02-15T03:22:52.524Z,102285.13
2019-02-15T03:24:26.891Z,102287.46
2019-02-15T03:26:01.493Z,102288.71
2019-02-15T03:27:35.893Z,102289.50
2019-02-15T03:29:10.605Z,102289.51
2019-02-15T03:30:45.299Z,102281.04
2019-02-15T03:32:20.156Z,102291.02
2019-02-15T03:33:54.669Z,102289.70
2019-02-15T03:35:29.347Z,102286.14
2019-02-15T03:37:30.059Z,102287.14
2019-02-15T03:39:15.745Z,102288.27
2019-02-15T03:40:54.186Z,102285.03
2019-02-15T03:42:28.817Z,102290.02
2019-02-15T03:44:03.476Z,102287.59
2019-02-15T03:45:38.095Z,102288.45
2019-02-15T03:47:14.433Z,102282.74
2019-02-15T03:48:49.232Z,102285.18
2019-02-15T03:50:23.961Z,102286.48
2019-02-15T03:51:58.403Z,102293.88
2019-02-15T03:53:32.809Z,102289.73
2019-02-15T03:55:07.416Z,102284.45
2019-02-15T03:56:41.927Z,102284.03
2019-02-15T03:58:16.584Z,102286.64
2019-02-15T03:59:50.958Z,102287.95
2019-02-15T04:01:25.684Z,102288.95
2019-02-15T04:03:00.338Z,102283.16
2019-02-15T04:04:34.968Z,102280.72
2019-02-15T04:06:09.475Z,102287.15
2019-02-15T04:07:44.436Z,102295.70
2019-02-15T04:09:19.267Z,102293.28
2019-02-15T04:10:53.898Z,102289.98
2019-02-15T04:12:28.272Z,102290.52
2019-02-15T04:14:02.773Z,102283.70
2019-02-15T04:15:37.470Z,102290.50
2019-02-15T04:17:12.335Z,102289.47
2019-02-15T04:18:47.319Z,102282.61
2019-02-15T04:20:21.702Z,102285.99
2019-02-15T04:21:56.138Z,102279.91
2019-02-15T04:23:30.532Z,102283.31
2019-02-15T04:25:05.295Z,102280.84
2019-02-15T04:26:39.690Z,102282.11
2019-02-15T04:28:14.607Z,102281.89
2019-02-15T04:29:49.294Z,102284.67
2019-02-15T04:31:23.782Z,102276.02
2019-02-15T04:32:58.644Z,102273.85
2019-02-15T04:34:33.156Z,102282.16
2019-02-15T04:36:07.820Z,102281.53
2019-02-15T04:37:42.500Z,102279.30
2019-02-15T04:39:16.946Z,102280.78
2019-02-15T04:40:51.315Z,102279.94
2019-02-15T04:42:25.706Z,102279.80
2019-02-15T04:44:00.773Z,102280.10
2019-02-15T04:45:35.403Z,102289.59
2019-02-15T04:47:09.822Z,102288.39
2019-02-15T04:48:44.430Z,102282.02
2019-02-15T04:50:18.800Z,102287.94
2019-02-15T04:51:53.276Z,102290.16
2019-02-15T04:53:27.689Z,102279.84
2019-02-15T04:55:02.297Z,102288.75
2019-02-15T04:56:36.922Z,102280.56
2019-02-15T04:58:11.290Z,102282.74
2019-02-15T04:59:45.695Z,102282.50
2019-02-15T05:01:20.069Z,102274.34
2019-02-15T05:02:54.670Z,102279.66
2019-02-15T05:04:29.094Z,102278.18
2019-02-15T05:06:03.769Z,102276.28
2019-02-15T05:07:38.481Z,102279.38
2019-02-15T05:09:13.090Z,102287.47
2019-02-15T05:10:47.570Z,102286.37
2019-02-15T05:12:22.207Z,102288.27
2019-02-15T05:13:56.834Z,102291.05
2019-02-15T05:15:31.742Z,102290.98
2019-02-15T05:17:06.272Z,102293.92
2019-02-15T05:18:41.145Z,102290.18
2019-02-15T05:20:15.773Z,102289.95
2019-02-15T05:21:50.407Z,102292.38
2019-02-15T05:23:25.109Z,102290.19
2019-02-15T05:24:59.824Z,102298.44
2019-02-15T05:26:34.431Z,102286.83
2019-02-15T05:28:09.144Z,102290.91
2019-02-15T05:29:43.686Z,102285.53
2019-02-15T05:31:18.327Z,102284.25
2019-02-15T05:32:52.702Z,102290.23
2019-02-15T05:34:27.380Z,102289.63
2019-02-15T05:36:01.788Z,102288.19
2019-02-15T05:37:36.227Z,102290.31
2019-02-15T05:39:10.871Z,102291.81
2019-02-15T05:40:45.319Z,102297.38
2019-02-15T05:42:19.782Z,102299.39
2019-02-15T05:43:54.814Z,102293.97
2019-02-15T05:45:29.197Z,102293.96
2019-02-15T05:47:03.975Z,102291.24
2019-02-15T05:48:38.736Z,102289.00
2019-02-15T05:50:13.123Z,102289.73
2019-02-15T05:51:47.822Z,102293.00
2019-02-15T05:53:22.561Z,102289.93
2019-02-15T05:54:57.315Z,102289.66
2019-02-15T05:56:31.705Z,102289.85
2019-02-15T05:58:06.403Z,102295.93
2019-02-15T05:59:40.945Z,102302.62
2019-02-15T06:01:15.459Z,102299.61
2019-02-15T06:02:50.103Z,102304.05
2019-02-15T06:04:24.643Z,102304.34
2019-02-15T06:05:59.071Z,102301.88
2019-02-15T06:07:33.500Z,102298.52
2019-02-15T06:09:08.538Z,102300.55
2019-02-15T06:10:42.982Z,102296.93
2019-02-15T06:12:17.378Z,102303.19
2019-02-15T06:13:52.022Z,102304.13
2019-02-15T06:15:26.423Z,102298.29
2019-02-15T06:17:01.802Z,102291.56
2019-02-15T06:18:36.494Z,102298.84
2019-02-15T06:20:10.876Z,102303.26
2019-02-15T06:21:45.351Z,102305.47
2019-02-15T06:23:19.810Z,102297.86
2019-02-15T06:24:54.182Z,102305.97
2019-02-15T06:26:29.120Z,102305.08
2019-02-15T06:28:04.127Z,102310.39
2019-02-15T06:29:38.591Z,102307.53
2019-02-15T06:31:13.045Z,102308.53
2019-02-15T06:32:48.243Z,102308.73
2019-02-15T06:34:22.654Z,102309.27
2019-02-15T06:35:57.029Z,102307.78
2019-02-15T06:37:31.658Z,102314.08
2019-02-15T06:39:08.323Z,102311.66
2019-02-15T06:40:42.991Z,102321.81
2019-02-15T06:42:17.872Z,102315.91
2019-02-15T06:43:52.576Z,102321.94
2019-02-15T06:45:27.408Z,102322.94
2019-02-15T06:47:02.139Z,102321.37
2019-02-15T06:48:37.091Z,102318.08
2019-02-15T06:50:11.471Z,102321.23
2019-02-15T06:51:46.118Z,102320.66
2019-02-15T06:53:20.555Z,102322.47
2019-02-15T06:54:54.938Z,102320.38
2019-02-15T06:56:29.538Z,102325.05
2019-02-15T06:58:04.200Z,102317.37
2019-02-15T07:00:13.136Z,102319.48
2019-02-15T07:01:55.859Z,102312.20
2019-02-15T07:03:44.782Z,102317.87
2019-02-15T07:05:29.632Z,102321.30
2019-02-15T07:07:04.495Z,102310.42
2019-02-15T07:08:38.954Z,102314.78
2019-02-15T07:10:13.499Z,102312.06
2019-02-15T07:11:48.079Z,102311.50
2019-02-15T07:13:22.454Z,102319.81
2019-02-15T07:14:57.143Z,102316.60
2019-02-15T07:16:31.774Z,102318.99
2019-02-15T07:18:06.421Z,102321.98
2019-02-15T07:19:41.078Z,102318.59
2019-02-15T07:21:15.702Z,102326.22
2019-02-15T07:22:51.325Z,102320.25
2019-02-15T07:24:25.955Z,102321.94
2019-02-15T07:26:00.590Z,102319.16
2019-02-15T07:27:34.983Z,102324.87
2019-02-15T07:29:09.615Z,102326.83
2019-02-15T07:30:44.405Z,102328.45
2019-02-15T07:32:19.220Z,102329.81
2019-02-15T07:33:53.662Z,102326.92
2019-02-15T07:35:28.041Z,102323.58
2019-02-15T07:37:02.501Z,102321.83
2019-02-15T07:38:36.954Z,102323.19
2019-02-15T07:40:11.347Z,102317.06
2019-02-15T07:41:45.713Z,102318.83
2019-02-15T07:43:20.284Z,102313.77
2019-02-15T07:44:54.971Z,102310.05
2019-02-15T07:46:29.384Z,102309.95
2019-02-15T07:48:03.758Z,102304.77
2019-02-15T07:49:38.238Z,102304.15
2019-02-15T07:51:12.679Z,102311.48
2019-02-15T07:52:47.633Z,102301.36
2019-02-15T07:54:22.174Z,102302.84
2019-02-15T07:55:56.875Z,102302.75
2019-02-15T07:57:31.503Z,102309.41
2019-02-15T07:59:06.027Z,102310.70
2019-02-15T08:00:40.434Z,102309.79
2019-02-15T08:02:14.845Z,102307.34
2019-02-15T08:03:49.650Z,102298.34
2019-02-15T08:05:24.036Z,102294.78
2019-02-15T08:06:58.397Z,102295.52
2019-02-15T08:08:33.270Z,102295.23
2019-02-15T08:10:09.124Z,102303.16
2019-02-15T08:11:43.498Z,102301.78
2019-02-15T08:13:17.886Z,102300.78
2019-02-15T08:14:52.497Z,102296.72
2019-02-15T08:16:27.314Z,102291.70
2019-02-15T08:18:01.939Z,102291.91
2019-02-15T08:19:36.474Z,102296.53
2019-02-15T08:21:11.102Z,102304.04
2019-02-15T08:22:46.458Z,102300.95
2019-02-15T08:24:20.903Z,102301.16
2019-02-15T08:25:55.562Z,102296.78
2019-02-15T08:27:31.427Z,102299.88
2019-02-15T08:29:06.039Z,102298.05
2019-02-15T08:30:40.818Z,102299.09
2019-02-15T08:32:15.465Z,102297.58
2019-02-15T08:33:49.834Z,102298.98
2019-02-15T08:35:24.318Z,102288.38
2019-02-15T08:36:58.763Z,102282.59
2019-02-15T08:38:33.387Z,102284.24
2019-02-15T08:40:09.058Z,102283.16
2019-02-15T08:42:00.674Z,102279.14
2019-02-15T08:43:20.214Z,102283.53
2019-02-15T08:44:54.676Z,102286.38
2019-02-15T08:46:29.623Z,102282.94
2019-02-15T08:48:03.999Z,102276.30
2019-02-15T08:49:38.392Z,102277.01
2019-02-15T08:51:18.355Z,102273.52
2019-02-15T08:52:52.628Z,102269.73
2019-02-15T08:54:46.510Z,102268.67
2019-02-15T08:56:21.063Z,102270.28
2019-02-15T08:57:56.422Z,102267.02
2019-02-15T08:59:31.162Z,102269.53
2019-02-15T09:01:05.794Z,102262.16
2019-02-15T09:02:40.562Z,102259.58
2019-02-15T09:04:15.411Z,102264.32
2019-02-15T09:05:50.474Z,102266.52
2019-02-15T09:07:28.204Z,102259.31
2019-02-15T09:09:04.638Z,102260.03
2019-02-15T09:10:42.724Z,102253.55
2019-02-15T09:12:18.842Z,102246.64
2019-02-15T09:13:54.175Z,102257.41
2019-02-15T09:15:29.247Z,102255.78
2019-02-15T09:17:04.065Z,102258.91
2019-02-15T09:18:39.373Z,102258.77
2019-02-15T09:20:14.365Z,102251.52
2019-02-15T09:21:49.694Z,102254.55
2019-02-15T09:23:24.991Z,102253.48
2019-02-15T09:24:59.874Z,102252.36
2019-02-15T09:26:34.679Z,102253.71
2019-02-15T09:28:14.844Z,102256.11
2019-02-15T09:29:49.656Z,102254.05
2019-02-15T09:31:24.774Z,102247.75
2019-02-15T09:32:59.823Z,102238.58
2019-02-15T09:34:35.093Z,102233.73
2019-02-15T09:36:09.892Z,102232.84
2019-02-15T09:37:44.698Z,102226.27
2019-02-15T09:39:19.511Z,102229.47
2019-02-15T09:40:54.540Z,102223.76
2019-02-15T09:42:29.864Z,102221.67
2019-02-15T09:44:04.659Z,102221.28
2019-02-15T09:45:39.745Z,102228.86
2019-02-15T09:47:15.428Z,102232.72
2019-02-15T09:48:50.670Z,102223.28
2019-02-15T09:50:25.470Z,102220.92
2019-02-15T09:52:00.282Z,102227.09
2019-02-15T09:53:35.077Z,102231.06
2019-02-15T09:55:09.976Z,102243.42
2019-02-15T09:56:44.764Z,102235.27
2019-02-15T09:58:19.562Z,102221.70
2019-02-15T09:59:54.625Z,102213.29
2019-02-15T10:01:29.700Z,102231.45
2019-02-15T10:03:04.506Z,102232.56
2019-02-15T10:04:39.618Z,102211.69
2019-02-15T10:06:14.686Z,102222.47
2019-02-15T10:07:49.555Z,102227.38
2019-02-15T10:09:24.630Z,102236.49
2019-02-15T10:10:59.661Z,102222.14
2019-02-15T10:12:34.532Z,102226.28
2019-02-15T10:14:09.343Z,102226.95
2019-02-15T10:15:44.174Z,102233.03
2019-02-15T10:17:18.967Z,102229.08
2019-02-15T10:18:53.784Z,102222.41
2019-02-15T10:20:28.581Z,102217.19
2019-02-15T10:22:03.406Z,102230.01
2019-02-15T10:23:39.069Z,102219.39
2019-02-15T10:25:14.135Z,102211.61
2019-02-15T10:26:48.939Z,102206.51
2019-02-15T10:28:23.770Z,102210.94
2019-02-15T10:29:58.822Z,102206.95
2019-02-15T10:31:33.992Z,102216.11
2019-02-15T10:33:08.864Z,102215.71
2019-02-15T10:34:43.980Z,102212.18
2019-02-15T10:36:19.057Z,102205.44
2019-02-15T10:37:54.140Z,102207.49
2019-02-15T10:39:29.194Z,102200.55
2019-02-15T10:41:04.236Z,102207.89
2019-02-15T10:42:39.356Z,102209.92
2019-02-15T10:44:14.186Z,102208.77
2019-02-15T10:45:49.256Z,102207.63
2019-02-15T10:47:25.250Z,102198.66
2019-02-15T10:49:00.343Z,102197.55
2019-02-15T10:50:35.149Z,102194.75
2019-02-15T10:52:10.221Z,102179.20
2019-02-15T10:53:45.298Z,102178.55
2019-02-15T10:55:20.601Z,102184.95
2019-02-15T10:56:55.402Z,102180.83
2019-02-15T10:58:30.281Z,102170.84
2019-02-15T11:00:08.719Z,102165.78
2019-02-15T11:01:43.580Z,102164.73
2019-02-15T11:03:18.598Z,102172.02
2019-02-15T11:04:53.394Z,102177.49
2019-02-15T11:06:29.732Z,102178.36
2019-02-15T11:15:01.717Z,102179.63
2019-02-15T11:20:24.756Z,102180.80
2019-02-15T11:22:25.594Z,102169.02
2019-02-15T11:57:05.112Z,102103.17
2019-02-15T11:58:40.061Z,102103.19
2019-02-15T12:01:40.733Z,102097.66
2019-02-15T12:26:44.545Z,102075.34
2019-02-15T12:29:12.620Z,102071.94
2019-02-15T12:30:55.795Z,102069.34
2019-02-15T12:40:24.555Z,102058.02
2019-02-15T12:43:02.842Z,102052.31
2019-02-15T12:46:13.359Z,102054.03
2019-02-15T12:49:27.501Z,102054.16
2019-02-15T12:52:02.611Z,102047.30
2019-02-15T13:01:12.796Z,102034.11
2019-02-15T13:11:40.496Z,102022.98
2019-02-15T13:13:37.861Z,102016.52
2019-02-15T13:37:24.527Z,101992.63
2019-02-15T13:45:12.342Z,101989.45
2019-02-15T13:50:32.945Z,101983.72
2019-02-15T13:52:17.536Z,101984.62
2019-02-15T13:55:52.092Z,101978.87
2019-02-15T13:57:27.396Z,101980.48
2019-02-15T13:59:02.646Z,101981.36
2019-02-15T14:00:38.056Z,101974.67
2019-02-15T14:02:12.987Z,101972.91
2019-02-15T14:03:48.427Z,101973.24
2019-02-15T14:05:23.872Z,101979.33
2019-02-15T14:06:59.213Z,101969.27
2019-02-15T14:08:34.182Z,101964.79
2019-02-15T14:10:10.904Z,101967.98
2019-02-15T14:12:07.412Z,101967.97
2019-02-15T14:13:54.599Z,101975.16
2019-02-15T14:18:29.621Z,101959.64
2019-02-15T14:21:16.261Z,101960.83
2019-02-15T14:23:02.192Z,101956.95
2019-02-15T14:24:53.263Z,101955.16
2019-02-15T14:27:11.851Z,101955.91
2019-02-15T14:29:00.110Z,101950.52
2019-02-15T14:30:45.729Z,101955.47
2019-02-15T14:32:57.737Z,101955.12
2019-02-15T14:35:05.857Z,101962.37
2019-02-15T14:36:46.208Z,101956.62
2019-02-15T14:40:22.283Z,101961.67
2019-02-15T14:42:03.856Z,101950.15
2019-02-15T14:43:42.056Z,101954.40
2019-02-15T14:45:36.435Z,101950.31
2019-02-15T14:50:45.156Z,101940.05
2019-02-15T14:52:26.650Z,101946.27
2019-02-15T14:54:05.788Z,101941.44
2019-02-15T14:55:41.539Z,101942.64
2019-02-15T14:57:16.791Z,101943.65
2019-02-15T14:58:51.855Z,101937.74
2019-02-15T15:00:26.968Z,101940.59
2019-02-15T15:02:02.007Z,101932.84
2019-02-15T15:03:37.185Z,101932.72
2019-02-15T15:05:13.632Z,101934.47
2019-02-15T15:06:48.978Z,101935.88
2019-02-15T15:08:24.300Z,101935.37
2019-02-15T15:09:59.193Z,101937.03
2019-02-15T15:11:34.555Z,101932.75
2019-02-15T15:13:09.514Z,101931.48
2019-02-15T15:14:44.451Z,101925.69
2019-02-15T15:16:20.677Z,101921.27
2019-02-15T15:18:05.968Z,101921.41
2019-02-15T15:19:32.400Z,101922.80
2019-02-15T15:21:07.463Z,101918.33
2019-02-15T15:22:42.590Z,101927.95
2019-02-15T15:24:17.726Z,101925.48
2019-02-15T15:25:52.671Z,101924.42
2019-02-15T15:27:27.510Z,101923.38
2019-02-15T15:29:02.446Z,101930.55
2019-02-15T15:30:37.292Z,101930.08
2019-02-15T15:32:12.512Z,101930.67
2019-02-15T15:33:47.392Z,101929.16
2019-02-15T15:35:22.419Z,101927.64
2019-02-15T15:36:57.356Z,101921.54
2019-02-15T15:38:32.541Z,101920.52
2019-02-15T15:40:09.381Z,101925.92
2019-02-15T15:41:44.332Z,101918.98
2019-02-15T15:43:19.218Z,101915.95
2019-02-15T15:44:53.857Z,101917.36
2019-02-15T15:46:28.839Z,101924.11
2019-02-15T15:48:03.735Z,101922.78
2019-02-15T15:49:38.522Z,101919.08
2019-02-15T15:51:13.839Z,101915.77
2019-02-15T15:52:48.602Z,101919.13
2019-02-15T15:54:23.332Z,101919.95
2019-02-15T15:55:57.760Z,101915.44
2019-02-15T15:57:32.134Z,101920.92
2019-02-15T15:59:06.572Z,101911.94
2019-02-15T16:00:41.033Z,101923.51
2019-02-15T16:02:15.774Z,101917.30
2019-02-15T16:03:50.601Z,101917.45
2019-02-15T16:05:25.080Z,101913.93
2019-02-15T16:07:00.311Z,101913.88
2019-02-15T16:08:35.104Z,101917.84
2019-02-15T16:10:11.287Z,101919.94
2019-02-15T16:11:46.333Z,101919.64
2019-02-15T16:13:21.908Z,101920.42
2019-02-15T16:14:57.226Z,101928.51
2019-02-15T16:16:32.005Z,101924.84
2019-02-15T16:18:07.079Z,101932.80
2019-02-15T16:19:49.144Z,101932.27
2019-02-15T16:21:18.861Z,101932.11
2019-02-15T16:22:53.923Z,101929.90
2019-02-15T16:24:28.941Z,101937.59
2019-02-15T16:26:04.079Z,101931.00
2019-02-15T16:27:38.935Z,101935.97
2019-02-15T16:29:14.251Z,101932.40
2019-02-15T16:30:49.061Z,101929.84
2019-02-15T16:32:24.140Z,101936.32
2019-02-15T16:33:58.957Z,101934.97
2019-02-15T16:35:34.296Z,101934.63
2019-02-15T16:37:09.595Z,101934.30
2019-02-15T16:38:44.397Z,101938.45
2019-02-15T16:40:19.461Z,101932.80
2019-02-15T16:41:54.273Z,101933.55
2019-02-15T16:43:29.063Z,101945.21
2019-02-15T16:45:04.230Z,101942.63
2019-02-15T16:46:39.260Z,101939.45
2019-02-15T16:48:14.083Z,101939.50
2019-02-15T16:49:49.146Z,101944.14
2019-02-15T16:51:23.937Z,101942.10
2019-02-15T16:52:59.149Z,101952.36
2019-02-15T16:54:34.198Z,101953.02
2019-02-15T16:56:08.993Z,101960.02
2019-02-15T16:57:43.846Z,101959.01
2019-02-15T16:59:18.880Z,101959.04
2019-02-15T17:00:53.668Z,101959.35
2019-02-15T17:02:28.468Z,101959.43
2019-02-15T17:04:03.264Z,101960.84
2019-02-15T17:05:38.171Z,101967.67
2019-02-15T17:07:13.066Z,101975.05
2019-02-15T17:08:48.092Z,101978.68
2019-02-15T17:10:23.296Z,101974.09
2019-02-15T17:11:58.798Z,101975.33
2019-02-15T17:13:34.731Z,101976.45
2019-02-15T17:15:11.207Z,101973.83
2019-02-15T17:16:46.281Z,101982.05
2019-02-15T17:18:21.079Z,101977.91
2019-02-15T17:19:55.875Z,101974.42
2019-02-15T17:21:30.683Z,101972.34
2019-02-15T17:23:05.511Z,101971.78
2019-02-15T17:24:40.660Z,101973.14
2019-02-15T17:26:15.693Z,101971.02
2019-02-15T17:27:50.690Z,101974.41
2019-02-15T17:29:25.507Z,101974.30
2019-02-15T17:31:00.550Z,101970.86
2019-02-15T17:32:34.981Z,101979.97
2019-02-15T17:34:09.714Z,101972.23
2019-02-15T17:35:44.317Z,101979.14
2019-02-15T17:37:18.706Z,101975.56
2019-02-15T17:38:53.118Z,101976.30
2019-02-15T17:40:27.913Z,101973.38
2019-02-15T17:42:02.537Z,101980.06
2019-02-15T17:43:37.702Z,101978.47
2019-02-15T17:45:12.614Z,101978.19
2019-02-15T17:46:47.824Z,101976.91
2019-02-15T17:48:23.199Z,101976.72
2019-02-15T17:49:57.969Z,101976.92
2019-02-15T17:51:32.806Z,101976.88
2019-02-15T17:53:07.665Z,101979.47
2019-02-15T17:54:42.726Z,101979.16
2019-02-15T17:56:17.518Z,101971.63
2019-02-15T17:57:52.315Z,101980.05
2019-02-15T17:59:27.107Z,101974.47
2019-02-15T18:01:01.921Z,101975.22
2019-02-15T18:02:36.721Z,101971.38
2019-02-15T18:04:11.758Z,101966.22
2019-02-15T18:05:46.562Z,101973.39
2019-02-15T18:07:21.360Z,101975.25
2019-02-15T18:08:56.146Z,101979.20
2019-02-15T18:10:31.020Z,101975.29
2019-02-15T18:12:06.075Z,101978.08
2019-02-15T18:13:40.893Z,101978.09
2019-02-15T18:15:16.112Z,101985.50
2019-02-15T18:16:51.166Z,101982.16
2019-02-15T18:18:26.228Z,101980.14
2019-02-15T18:20:01.295Z,101979.92
2019-02-15T18:21:36.392Z,101980.39
2019-02-15T18:23:10.847Z,101982.03
2019-02-15T18:24:45.481Z,101986.09
2019-02-15T18:26:19.947Z,101984.58
2019-02-15T18:27:54.403Z,101982.36
2019-02-15T18:29:28.814Z,101980.70
2019-02-15T18:31:03.203Z,101986.22
2019-02-15T18:32:37.761Z,101982.07
2019-02-15T18:34:12.733Z,101984.88
2019-02-15T18:35:47.106Z,101978.43
2019-02-15T18:37:21.496Z,101984.59
2019-02-15T18:38:56.567Z,101981.91
2019-02-15T18:40:31.955Z,101985.84
2019-02-15T18:42:06.746Z,101973.80
2019-02-15T18:43:41.836Z,101974.50
2019-02-15T18:45:17.892Z,101972.03
2019-02-15T18:46:52.690Z,101971.27
2019-02-15T18:48:27.760Z,101971.70
2019-02-15T18:50:02.822Z,101970.48
2019-02-15T18:51:37.606Z,101978.73
2019-02-15T18:53:12.904Z,101975.41
2019-02-15T18:54:47.711Z,101976.58
2019-02-15T18:56:22.541Z,101980.14
2019-02-15T18:57:57.376Z,101974.46
2019-02-15T18:59:32.272Z,101975.75
2019-02-15T19:01:07.057Z,101978.30
2019-02-15T19:02:41.994Z,101983.84
2019-02-15T19:04:17.047Z,101975.46
2019-02-15T19:05:52.363Z,101981.69
2019-02-15T19:07:27.425Z,101977.11
2019-02-15T19:09:02.752Z,101982.48
2019-02-15T19:10:37.539Z,101978.30
2019-02-15T19:12:12.324Z,101984.73
2019-02-15T19:13:47.119Z,101982.63
2019-02-15T19:15:21.947Z,101981.08
2019-02-15T19:16:56.742Z,101983.59
2019-02-15T19:18:31.860Z,101975.05
2019-02-15T19:20:08.348Z,101982.73
2019-02-15T19:21:43.147Z,101983.79
2019-02-15T19:23:18.216Z,101980.09
2019-02-15T19:24:53.003Z,101978.84
2019-02-15T19:26:28.061Z,101972.84
2019-02-15T19:28:02.851Z,101969.41
2019-02-15T19:29:37.739Z,101971.95
2019-02-15T19:31:13.006Z,101963.45
2019-02-15T19:32:48.090Z,101969.34
2019-02-15T19:34:22.905Z,101967.45
2019-02-15T19:35:58.057Z,101972.67
2019-02-15T19:37:33.274Z,101971.40
2019-02-15T19:39:08.811Z,101968.27
2019-02-15T19:40:43.940Z,101968.00
2019-02-15T19:42:21.774Z,101969.22
2019-02-15T19:43:56.652Z,101971.75
2019-02-15T19:45:31.442Z,101968.72
2019-02-15T19:47:06.508Z,101973.92
2019-02-15T19:48:41.285Z,101977.15
2019-02-15T19:50:17.217Z,101978.89
2019-02-15T19:51:52.032Z,101983.58
2019-02-15T19:53:26.832Z,101972.69
2019-02-15T19:55:01.639Z,101975.53
2019-02-15T19:56:36.921Z,101977.61
2019-02-15T19:58:11.728Z,101966.20
2019-02-15T19:59:53.540Z,101969.32
2019-02-15T20:01:23.402Z,101974.14
2019-02-15T20:02:58.509Z,101971.11
2019-02-15T20:04:33.548Z,101967.94
2019-02-15T20:06:08.518Z,101963.43
2019-02-15T20:07:43.868Z,101971.15
2019-02-15T20:09:18.741Z,101962.09
2019-02-15T20:10:53.518Z,101969.19
2019-02-15T20:12:28.312Z,101973.40
2019-02-15T20:14:03.765Z,101963.98
2019-02-15T20:15:38.859Z,101964.42
2019-02-15T20:17:13.660Z,101969.59
2019-02-15T20:18:48.809Z,101968.90
2019-02-15T20:20:23.893Z,101965.80
2019-02-15T20:21:58.727Z,101965.87
2019-02-15T20:23:33.370Z,101969.49
2019-02-15T20:25:08.929Z,101965.85
2019-02-15T20:26:43.586Z,101967.76
2019-02-15T20:28:18.419Z,101963.80
2019-02-15T20:29:52.866Z,101966.81
2019-02-15T20:31:27.274Z,101964.62
2019-02-15T20:33:01.908Z,101967.12
2019-02-15T20:34:45.052Z,101969.91
2019-02-15T20:36:12.562Z,101969.16
2019-02-15T20:37:46.978Z,101966.16
2019-02-15T20:39:21.645Z,101969.31